createdAt,value
2023-04-27T00:01:49.000Z,56.36
2023-04-27T00:03:21.929Z,57.44
2023-04-27T00:04:44.688Z,58.33
2023-04-27T00:06:06.904Z,59.20
2023-04-27T00:07:36.572Z,59.91
2023-04-27T00:09:00.750Z,60.60
2023-04-27T00:10:29.927Z,61.45
2023-04-27T00:12:02.029Z,62.11
2023-04-27T00:13:23.617Z,62.88
2023-04-27T00:14:48.248Z,63.98
2023-04-27T00:16:09.868Z,62.16
2023-04-27T00:17:43.756Z,58.41
2023-04-27T00:19:05.561Z,55.11
2023-04-27T00:20:27.740Z,54.31
2023-04-27T00:21:49.989Z,55.06
2023-04-27T00:23:16.067Z,56.22
2023-04-27T00:24:49.656Z,57.45
2023-04-27T00:26:18.644Z,58.66
2023-04-27T00:27:42.361Z,59.59
2023-04-27T00:29:04.395Z,60.43
2023-04-27T00:30:28.432Z,61.00
2023-04-27T00:31:52.717Z,61.54
2023-04-27T00:33:17.170Z,62.24
2023-04-27T00:34:45.572Z,63.11
2023-04-27T00:36:06.287Z,63.78
2023-04-27T00:37:28.456Z,61.94
2023-04-27T00:39:00.408Z,58.30
2023-04-27T00:40:21.937Z,55.03
2023-04-27T00:41:44.128Z,54.37
2023-04-27T00:43:07.783Z,55.19
2023-04-27T00:44:29.580Z,56.37
2023-04-27T00:45:53.283Z,57.45
2023-04-27T00:47:14.725Z,58.64
2023-04-27T00:48:41.262Z,59.59
2023-04-27T00:50:11.960Z,60.58
2023-04-27T00:51:33.611Z,61.29
2023-04-27T00:52:57.916Z,61.97
2023-04-27T00:54:20.036Z,62.84
2023-04-27T00:55:46.471Z,64.03
2023-04-27T00:57:10.635Z,62.72
2023-04-27T00:58:34.967Z,59.53
2023-04-27T00:59:59.077Z,55.82
2023-04-27T01:01:21.475Z,54.53
2023-04-27T01:02:57.774Z,55.02
2023-04-27T01:04:24.439Z,56.35
2023-04-27T01:05:46.561Z,57.57
2023-04-27T01:07:09.415Z,58.47
2023-04-27T01:08:31.063Z,59.32
2023-04-27T01:09:52.704Z,60.30
2023-04-27T01:11:21.849Z,61.28
2023-04-27T01:12:43.803Z,61.71
2023-04-27T01:14:05.500Z,62.58
2023-04-27T01:15:29.436Z,63.71
2023-04-27T01:16:51.367Z,63.02
2023-04-27T01:18:28.303Z,59.65
2023-04-27T01:19:55.248Z,55.65
2023-04-27T01:21:17.124Z,54.29
2023-04-27T01:22:41.390Z,54.84
2023-04-27T01:24:03.893Z,55.95
2023-04-27T01:25:33.268Z,57.16
2023-04-27T01:27:09.089Z,58.54
2023-04-27T01:28:32.055Z,59.34
2023-04-27T01:30:03.545Z,60.12
2023-04-27T01:31:39.068Z,61.00
2023-04-27T01:33:01.478Z,61.73
2023-04-27T01:34:23.249Z,62.32
2023-04-27T01:35:47.669Z,63.62
2023-04-27T01:37:09.158Z,63.73
2023-04-27T01:38:30.923Z,61.14
2023-04-27T01:40:06.573Z,57.13
2023-04-27T01:41:28.505Z,54.67
2023-04-27T01:42:50.542Z,54.75
2023-04-27T01:44:21.833Z,55.81
2023-04-27T01:45:53.610Z,57.03
2023-04-27T01:47:28.439Z,58.23
2023-04-27T01:48:50.529Z,59.33
2023-04-27T01:50:20.169Z,60.18
2023-04-27T01:52:01.033Z,61.23
2023-04-27T01:53:30.461Z,62.07
2023-04-27T01:55:04.394Z,63.40
2023-04-27T01:56:38.237Z,63.70
2023-04-27T01:58:00.384Z,61.03
2023-04-27T01:59:29.339Z,57.51
2023-04-27T02:00:59.194Z,54.56
2023-04-27T02:02:21.405Z,54.54
2023-04-27T02:04:07.059Z,55.74
2023-04-27T02:05:30.400Z,57.17
2023-04-27T02:06:59.485Z,58.33
2023-04-27T02:08:23.308Z,59.38
2023-04-27T02:09:57.053Z,60.36
2023-04-27T02:11:26.583Z,61.14
2023-04-27T02:12:50.979Z,61.99
2023-04-27T02:14:12.128Z,62.81
2023-04-27T02:15:36.339Z,64.11
2023-04-27T02:17:00.254Z,62.43
2023-04-27T02:18:21.348Z,59.40
2023-04-27T02:19:43.811Z,55.82
2023-04-27T02:21:05.880Z,54.51
2023-04-27T02:22:30.199Z,55.15
2023-04-27T02:23:54.750Z,56.29
2023-04-27T02:25:24.022Z,57.47
2023-04-27T02:26:48.856Z,58.65
2023-04-27T02:28:10.466Z,59.75
2023-04-27T02:29:40.278Z,60.69
2023-04-27T02:31:03.234Z,61.53
2023-04-27T02:32:32.682Z,62.17
2023-04-27T02:34:14.800Z,63.56
2023-04-27T02:35:39.300Z,63.33
2023-04-27T02:37:23.006Z,60.41
2023-04-27T02:38:52.333Z,55.71
2023-04-27T02:40:32.867Z,54.57
2023-04-27T02:41:54.997Z,55.39
2023-04-27T02:43:18.628Z,56.58
2023-04-27T02:44:40.806Z,57.82
2023-04-27T02:46:04.446Z,58.89
2023-04-27T02:47:25.997Z,59.86
2023-04-27T02:48:51.038Z,60.87
2023-04-27T02:50:14.778Z,61.74
2023-04-27T02:51:37.017Z,62.48
2023-04-27T02:53:01.057Z,63.82
2023-04-27T02:54:34.763Z,63.21
2023-04-27T02:56:08.309Z,60.00
2023-04-27T02:57:30.215Z,56.02
2023-04-27T02:58:51.863Z,54.55
2023-04-27T03:00:13.536Z,55.12
2023-04-27T03:01:38.336Z,56.26
2023-04-27T03:03:00.490Z,57.51
2023-04-27T03:04:22.683Z,58.64
2023-04-27T03:05:44.969Z,59.73
2023-04-27T03:07:06.520Z,60.63
2023-04-27T03:08:28.346Z,61.50
2023-04-27T03:09:53.187Z,62.30
2023-04-27T03:11:14.771Z,63.58
2023-04-27T03:12:46.663Z,63.99
2023-04-27T03:14:08.018Z,61.16
2023-04-27T03:15:29.776Z,57.65
2023-04-27T03:16:54.347Z,55.03
2023-04-27T03:18:15.935Z,54.86
2023-04-27T03:19:40.816Z,55.85
2023-04-27T03:21:04.653Z,57.13
2023-04-27T03:22:28.480Z,58.35
2023-04-27T03:23:58.267Z,59.48
2023-04-27T03:25:31.641Z,60.65
2023-04-27T03:26:58.356Z,61.42
2023-04-27T03:28:31.954Z,62.63
2023-04-27T03:29:56.092Z,64.05
2023-04-27T03:31:26.864Z,62.90
2023-04-27T03:32:48.972Z,59.56
2023-04-27T03:34:24.422Z,56.04
2023-04-27T03:35:48.847Z,54.72
2023-04-27T03:37:22.298Z,55.48
2023-04-27T03:38:56.280Z,57.13
2023-04-27T03:40:17.888Z,58.36
2023-04-27T03:41:42.318Z,59.51
2023-04-27T03:43:09.486Z,60.39
2023-04-27T03:44:33.429Z,61.49
2023-04-27T03:45:55.380Z,62.58
2023-04-27T03:47:28.525Z,64.16
2023-04-27T03:48:50.837Z,63.05
2023-04-27T03:50:12.476Z,60.22
2023-04-27T03:51:38.123Z,56.56
2023-04-27T03:53:02.310Z,54.86
2023-04-27T03:54:23.888Z,55.25
2023-04-27T03:55:48.188Z,56.42
2023-04-27T03:57:12.312Z,57.69
2023-04-27T03:58:34.058Z,58.81
2023-04-27T04:00:12.060Z,60.15
2023-04-27T04:01:48.391Z,61.11
2023-04-27T04:03:12.593Z,62.10
2023-04-27T04:04:37.492Z,63.41
2023-04-27T04:06:11.163Z,64.13
2023-04-27T04:07:46.129Z,61.67
2023-04-27T04:09:20.141Z,57.96
2023-04-27T04:10:57.954Z,54.92
2023-04-27T04:12:33.864Z,55.35
2023-04-27T04:13:58.191Z,56.39
2023-04-27T04:15:20.344Z,57.83
2023-04-27T04:16:43.211Z,58.94
2023-04-27T04:18:07.879Z,60.11
2023-04-27T04:19:29.377Z,61.17
2023-04-27T04:20:52.426Z,62.00
2023-04-27T04:22:25.923Z,62.96
2023-04-27T04:23:56.466Z,63.79
2023-04-27T04:25:18.827Z,61.61
2023-04-27T04:26:54.922Z,57.83
2023-04-27T04:28:16.268Z,55.06
2023-04-27T04:29:40.428Z,54.75
2023-04-27T04:31:02.897Z,55.81
2023-04-27T04:32:24.477Z,57.08
2023-04-27T04:33:46.739Z,58.12
2023-04-27T04:35:21.322Z,59.22
2023-04-27T04:36:47.916Z,60.33
2023-04-27T04:38:14.376Z,61.06
2023-04-27T04:39:38.225Z,61.85
2023-04-27T04:41:10.082Z,62.85
2023-04-27T04:42:33.304Z,64.09
2023-04-27T04:44:14.153Z,61.88
2023-04-27T04:45:36.595Z,58.32
2023-04-27T04:47:10.186Z,55.21
2023-04-27T04:48:34.376Z,54.85
2023-04-27T04:50:10.875Z,55.68
2023-04-27T04:51:36.853Z,57.19
2023-04-27T04:53:10.133Z,58.20
2023-04-27T04:54:45.610Z,59.27
2023-04-27T04:56:07.195Z,60.08
2023-04-27T04:57:28.555Z,60.84
2023-04-27T04:58:50.639Z,61.27
2023-04-27T05:00:13.425Z,62.05
2023-04-27T05:01:45.457Z,63.10
2023-04-27T05:03:09.095Z,63.21
2023-04-27T05:05:03.497Z,60.74
2023-04-27T05:06:27.297Z,56.41
2023-04-27T05:07:52.084Z,54.44
2023-04-27T05:09:14.074Z,54.48
2023-04-27T05:10:36.808Z,55.29
2023-04-27T05:12:10.450Z,56.67
2023-04-27T05:13:44.029Z,57.48
2023-04-27T05:15:20.083Z,58.49
2023-04-27T05:16:44.642Z,59.23
2023-04-27T05:18:09.032Z,59.95
2023-04-27T05:19:38.386Z,60.69
2023-04-27T05:21:02.617Z,61.42
2023-04-27T05:22:36.666Z,61.80
2023-04-27T05:23:58.312Z,62.16
2023-04-27T05:25:43.393Z,62.76
2023-04-27T05:27:07.142Z,63.63
2023-04-27T05:28:28.833Z,61.86
2023-04-27T05:29:53.777Z,58.29
2023-04-27T05:31:15.427Z,55.08
2023-04-27T05:32:39.742Z,54.36
2023-04-27T05:34:13.276Z,54.94
2023-04-27T05:35:35.218Z,56.06
2023-04-27T05:37:08.718Z,57.00
2023-04-27T05:38:33.508Z,58.42
2023-04-27T05:40:09.178Z,59.04
2023-04-27T05:41:30.611Z,59.76
2023-04-27T05:43:03.674Z,59.94
2023-04-27T05:44:32.750Z,60.50
2023-04-27T05:45:57.159Z,60.72
2023-04-27T05:47:25.898Z,61.06
2023-04-27T05:48:51.188Z,61.34
2023-04-27T05:50:26.409Z,62.00
2023-04-27T05:52:07.765Z,62.17
2023-04-27T05:53:31.545Z,62.13
2023-04-27T05:54:54.046Z,62.49
2023-04-27T05:56:30.393Z,63.52
2023-04-27T05:58:07.900Z,62.88
2023-04-27T05:59:32.840Z,58.30
2023-04-27T06:01:06.193Z,54.60
2023-04-27T06:02:35.490Z,53.89
2023-04-27T06:04:01.634Z,54.34
2023-04-27T06:05:42.789Z,55.02
2023-04-27T06:07:12.081Z,56.34
2023-04-27T06:08:45.537Z,56.77
2023-04-27T06:10:17.285Z,57.52
2023-04-27T06:11:51.117Z,58.01
2023-04-27T06:13:16.694Z,58.60
2023-04-27T06:14:52.583Z,58.98
2023-04-27T06:16:18.720Z,59.59
2023-04-27T06:17:54.896Z,59.95
2023-04-27T06:19:18.847Z,60.07
2023-04-27T06:20:53.641Z,60.29
2023-04-27T06:22:17.354Z,60.90
2023-04-27T06:23:57.467Z,60.72
2023-04-27T06:25:38.786Z,60.96
2023-04-27T06:27:19.324Z,61.18
2023-04-27T06:28:43.656Z,61.47
2023-04-27T06:30:07.301Z,61.79
2023-04-27T06:31:40.693Z,61.82
2023-04-27T06:33:14.095Z,61.60
2023-04-27T06:34:37.812Z,61.44
2023-04-27T06:36:04.537Z,61.69
2023-04-27T06:37:26.136Z,61.48
2023-04-27T06:39:00.082Z,61.41
2023-04-27T06:40:45.094Z,61.30
2023-04-27T06:42:17.326Z,61.24
2023-04-27T06:43:41.377Z,60.85
2023-04-27T06:45:04.733Z,60.96
2023-04-27T06:46:50.214Z,61.36
2023-04-27T06:48:11.919Z,60.87
2023-04-27T06:49:56.985Z,60.93
2023-04-27T06:51:28.310Z,61.08
2023-04-27T06:53:01.824Z,60.87
2023-04-27T06:54:23.596Z,60.95
2023-04-27T06:55:48.244Z,60.83
2023-04-27T06:57:12.784Z,60.57
2023-04-27T06:58:37.662Z,60.24
2023-04-27T07:00:13.241Z,59.67
2023-04-27T07:01:42.570Z,59.10
2023-04-27T07:03:11.553Z,59.32
2023-04-27T07:04:32.648Z,59.76
2023-04-27T07:05:59.616Z,59.17
2023-04-27T07:07:21.471Z,58.52
2023-04-27T07:08:45.817Z,58.28
2023-04-27T07:10:09.443Z,58.29
2023-04-27T07:11:33.453Z,58.50
2023-04-27T07:13:09.148Z,58.54
2023-04-27T07:14:43.149Z,58.10
2023-04-27T07:16:23.898Z,58.06
2023-04-27T07:17:48.550Z,58.16
2023-04-27T07:19:20.100Z,58.02
2023-04-27T07:20:44.757Z,58.03
2023-04-27T07:22:19.974Z,58.02
2023-04-27T07:24:11.696Z,57.99
2023-04-27T07:25:46.224Z,58.05
2023-04-27T07:27:26.768Z,58.12
2023-04-27T07:29:01.654Z,58.28
2023-04-27T07:30:49.313Z,58.40
2023-04-27T07:32:15.146Z,58.16
2023-04-27T07:33:48.691Z,58.33
2023-04-27T07:35:18.030Z,58.64
2023-04-27T07:36:40.376Z,58.48
2023-04-27T07:38:04.437Z,59.16
2023-04-27T07:39:49.370Z,59.17
2023-04-27T07:41:11.107Z,59.23
2023-04-27T07:42:37.511Z,58.97
2023-04-27T07:44:13.666Z,58.96
2023-04-27T07:45:51.061Z,59.15
2023-04-27T07:47:26.017Z,59.38
2023-04-27T07:49:11.930Z,58.09
2023-04-27T07:50:51.189Z,57.72
2023-04-27T07:52:12.967Z,57.61
2023-04-27T07:53:47.831Z,58.06
2023-04-27T07:55:21.864Z,57.66
2023-04-27T07:56:55.860Z,57.45
2023-04-27T07:58:17.331Z,57.06
2023-04-27T07:59:58.416Z,57.40
2023-04-27T08:01:21.944Z,57.85
2023-04-27T08:02:59.334Z,57.93
2023-04-27T08:04:30.867Z,57.31
2023-04-27T08:06:07.524Z,57.48
2023-04-27T08:07:36.039Z,56.25
2023-04-27T08:09:10.099Z,56.50
2023-04-27T08:10:33.993Z,56.73
2023-04-27T08:12:19.841Z,55.88
2023-04-27T08:25:58.345Z,54.82
2023-04-27T08:27:38.922Z,55.09
2023-04-27T08:29:28.401Z,55.50
2023-04-27T08:31:00.711Z,55.07
2023-04-27T08:32:34.648Z,55.07
2023-04-27T08:34:03.580Z,54.15
2023-04-27T08:35:28.144Z,54.66
2023-04-27T08:37:13.167Z,53.68
2023-04-27T08:38:50.141Z,52.58
2023-04-27T08:40:31.064Z,51.73
2023-04-27T08:41:52.925Z,52.17
2023-04-27T08:43:14.986Z,52.32
2023-04-27T08:44:48.503Z,52.13
2023-04-27T08:46:34.396Z,51.45
2023-04-27T08:48:10.485Z,51.11
2023-04-27T08:49:44.684Z,50.58
2023-04-27T08:51:29.989Z,50.30
2023-04-27T08:53:19.675Z,50.04
2023-04-27T08:54:52.086Z,49.86
2023-04-27T08:56:25.678Z,51.27
2023-04-27T08:58:10.620Z,49.65
2023-04-27T08:59:47.737Z,49.71
2023-04-27T09:01:35.401Z,49.62
2023-04-27T09:03:19.412Z,50.03
2023-04-27T09:05:05.734Z,49.11
2023-04-27T09:06:51.580Z,48.36
2023-04-27T09:08:37.714Z,48.27
2023-04-27T09:10:23.140Z,49.15
2023-04-27T09:11:58.859Z,48.21
2023-04-27T09:13:51.006Z,48.63
2023-04-27T09:15:25.001Z,48.59
2023-04-27T09:16:59.782Z,48.28
2023-04-27T09:18:35.794Z,48.49
2023-04-27T09:20:07.745Z,47.76
2023-04-27T09:21:30.971Z,47.79
2023-04-27T09:22:55.637Z,47.17
2023-04-27T09:24:41.174Z,46.31
2023-04-27T09:26:14.363Z,45.96
2023-04-27T09:27:47.802Z,45.79
2023-04-27T09:29:09.452Z,45.52
2023-04-27T09:30:44.496Z,46.67
2023-04-27T09:32:19.074Z,46.56
2023-04-27T09:33:40.824Z,46.95
2023-04-27T09:35:02.251Z,47.40
2023-04-27T09:36:26.896Z,47.34
2023-04-27T09:37:51.617Z,47.04
2023-04-27T09:39:13.621Z,47.17
2023-04-27T09:40:36.921Z,46.29
2023-04-27T09:42:12.060Z,45.39
2023-04-27T09:43:48.833Z,45.76
2023-04-27T09:45:10.802Z,45.26
2023-04-27T09:46:45.095Z,45.26
2023-04-27T09:48:14.450Z,45.08
2023-04-27T09:49:38.904Z,45.29
2023-04-27T09:51:03.043Z,44.77
2023-04-27T09:52:26.450Z,44.19
2023-04-27T09:53:48.192Z,43.72
2023-04-27T09:55:10.400Z,43.79
2023-04-27T09:56:35.042Z,44.02
2023-04-27T09:57:56.570Z,43.81
2023-04-27T09:59:18.579Z,43.85
2023-04-27T10:00:42.560Z,44.36
2023-04-27T10:02:23.491Z,44.55
2023-04-27T10:04:18.575Z,44.75
2023-04-27T10:05:40.708Z,44.64
2023-04-27T10:07:16.413Z,45.03
2023-04-27T10:08:52.386Z,44.95
2023-04-27T10:10:28.401Z,44.68
2023-04-27T10:12:11.628Z,44.87
2023-04-27T10:13:53.138Z,45.16
2023-04-27T10:15:40.057Z,45.52
2023-04-27T10:17:04.028Z,45.45
2023-04-27T10:18:49.849Z,44.91
2023-04-27T10:20:11.741Z,45.17
2023-04-27T10:21:53.447Z,45.15
2023-04-27T10:23:29.100Z,45.51
2023-04-27T10:24:57.674Z,45.15
2023-04-27T10:26:19.641Z,44.66
2023-04-27T10:27:53.281Z,43.82
2023-04-27T10:29:16.496Z,43.85
2023-04-27T10:30:50.148Z,43.59
2023-04-27T10:32:23.705Z,43.69
2023-04-27T10:33:57.413Z,43.84
2023-04-27T10:35:22.216Z,44.11
2023-04-27T10:36:46.186Z,44.62
2023-04-27T10:38:31.424Z,44.17
2023-04-27T10:39:55.071Z,43.55
2023-04-27T10:41:19.810Z,43.28
2023-04-27T10:42:44.100Z,43.37
2023-04-27T10:44:20.076Z,43.44
2023-04-27T10:45:42.514Z,43.37
2023-04-27T10:47:11.440Z,44.04
2023-04-27T10:48:33.421Z,44.13
2023-04-27T10:49:57.157Z,44.25
2023-04-27T10:51:27.200Z,44.13
2023-04-27T10:53:04.033Z,44.12
2023-04-27T10:54:40.044Z,45.24
2023-04-27T10:56:15.507Z,44.87
2023-04-27T10:57:39.600Z,44.88
2023-04-27T10:59:00.864Z,44.49
2023-04-27T11:00:37.256Z,44.59
2023-04-27T11:02:17.626Z,44.50
2023-04-27T11:03:55.435Z,44.26
2023-04-27T11:05:19.592Z,44.83
2023-04-27T11:06:53.608Z,44.64
2023-04-27T11:08:17.875Z,44.91
2023-04-27T11:09:39.890Z,44.94
2023-04-27T11:11:15.429Z,44.82
2023-04-27T11:12:52.216Z,45.21
2023-04-27T11:14:14.703Z,44.73
2023-04-27T11:15:57.040Z,44.83
2023-04-27T11:17:23.446Z,44.88
2023-04-27T11:18:45.166Z,44.56
2023-04-27T11:20:16.648Z,44.17
2023-04-27T11:21:57.002Z,44.01
2023-04-27T11:23:38.042Z,43.69
2023-04-27T11:24:59.489Z,44.29
2023-04-27T11:26:21.772Z,43.92
2023-04-27T11:27:43.242Z,42.87
2023-04-27T11:29:14.097Z,43.29
2023-04-27T11:30:55.632Z,43.67
2023-04-27T11:32:19.961Z,43.81
2023-04-27T11:34:10.781Z,43.43
2023-04-27T11:35:46.182Z,42.95
2023-04-27T11:37:18.476Z,42.82
2023-04-27T11:38:52.517Z,42.88
2023-04-27T11:40:29.385Z,42.97
2023-04-27T11:41:51.410Z,43.55
2023-04-27T11:43:13.061Z,43.70
2023-04-27T11:44:46.741Z,43.03
2023-04-27T11:46:10.933Z,43.27
2023-04-27T11:47:47.070Z,43.59
2023-04-27T11:49:20.839Z,43.66
2023-04-27T11:51:06.189Z,43.87
2023-04-27T11:52:40.026Z,44.37
2023-04-27T11:54:03.936Z,43.94
2023-04-27T11:55:44.996Z,43.33
2023-04-27T11:57:30.197Z,42.67
2023-04-27T11:59:15.550Z,42.55
2023-04-27T12:00:51.582Z,42.57
2023-04-27T12:02:17.951Z,41.69
2023-04-27T12:03:54.325Z,40.63
2023-04-27T12:05:35.198Z,40.74
2023-04-27T12:06:58.987Z,40.51
2023-04-27T12:08:30.798Z,40.39
2023-04-27T12:10:06.173Z,40.39
2023-04-27T12:11:40.120Z,40.68
2023-04-27T12:13:20.648Z,40.82
2023-04-27T12:14:45.106Z,41.09
2023-04-27T12:16:18.614Z,41.66
2023-04-27T12:17:41.498Z,41.73
2023-04-27T12:19:05.366Z,42.08
2023-04-27T12:20:29.939Z,42.38
2023-04-27T12:22:06.185Z,43.13
2023-04-27T12:23:50.569Z,43.00
2023-04-27T12:25:20.078Z,43.09
2023-04-27T12:26:44.173Z,43.60
2023-04-27T12:28:19.255Z,43.23
2023-04-27T12:29:41.120Z,43.86
2023-04-27T12:31:14.524Z,43.64
2023-04-27T12:32:59.461Z,43.42
2023-04-27T12:34:23.975Z,43.48
2023-04-27T12:35:47.289Z,43.03
2023-04-27T12:37:11.593Z,42.69
2023-04-27T12:38:48.163Z,42.51
2023-04-27T12:40:23.213Z,42.42
2023-04-27T12:42:01.086Z,42.56
2023-04-27T12:43:32.750Z,42.37
2023-04-27T12:44:56.656Z,42.72
2023-04-27T12:46:20.923Z,42.95
2023-04-27T12:48:00.877Z,43.34
2023-04-27T12:49:36.137Z,43.93
2023-04-27T12:51:00.126Z,44.07
2023-04-27T12:52:41.058Z,44.31
2023-04-27T12:54:14.881Z,45.15
2023-04-27T12:55:48.946Z,46.39
2023-04-27T12:57:10.449Z,47.15
2023-04-27T12:58:39.857Z,47.42
2023-04-27T13:00:02.069Z,47.69
2023-04-27T13:01:27.792Z,47.74
2023-04-27T13:02:49.361Z,48.06
2023-04-27T13:04:11.402Z,47.80
2023-04-27T13:05:47.965Z,47.94
2023-04-27T13:07:09.885Z,47.92
2023-04-27T13:08:43.580Z,48.11
2023-04-27T13:10:17.159Z,48.18
2023-04-27T13:11:46.576Z,48.68
2023-04-27T13:13:22.135Z,48.57
2023-04-27T13:14:46.624Z,48.37
2023-04-27T13:16:08.361Z,48.32
2023-04-27T13:17:30.692Z,48.61
2023-04-27T13:19:13.559Z,49.07
2023-04-27T13:20:51.057Z,49.16
2023-04-27T13:22:24.682Z,47.85
2023-04-27T13:24:07.551Z,47.63
2023-04-27T13:25:43.572Z,47.17
2023-04-27T13:27:17.006Z,47.18
2023-04-27T13:29:02.222Z,46.95
2023-04-27T13:30:26.510Z,46.93
2023-04-27T13:31:50.204Z,46.71
2023-04-27T13:33:24.221Z,46.33
2023-04-27T13:34:59.538Z,45.90
2023-04-27T13:36:24.030Z,45.31
2023-04-27T13:37:45.736Z,45.16
2023-04-27T13:39:07.697Z,45.17
2023-04-27T13:40:31.848Z,45.37
2023-04-27T13:41:53.636Z,45.36
2023-04-27T13:43:15.586Z,45.30
2023-04-27T13:44:37.524Z,45.55
2023-04-27T13:46:01.517Z,45.69
2023-04-27T13:47:38.047Z,44.57
2023-04-27T13:49:18.490Z,43.81
2023-04-27T13:50:40.899Z,42.66
2023-04-27T13:52:05.373Z,41.70
2023-04-27T13:53:38.857Z,41.56
2023-04-27T13:55:05.521Z,41.41
2023-04-27T13:56:30.297Z,41.18
2023-04-27T13:57:51.794Z,41.11
2023-04-27T13:59:16.107Z,41.40
2023-04-27T14:00:38.677Z,41.82
2023-04-27T14:02:00.309Z,40.61
2023-04-27T14:03:24.579Z,40.60
2023-04-27T14:04:57.965Z,38.65
2023-04-27T14:06:19.839Z,36.64
2023-04-27T14:07:44.204Z,37.09
2023-04-27T14:09:05.737Z,37.67
2023-04-27T14:10:27.984Z,36.58
2023-04-27T14:11:56.469Z,36.12
2023-04-27T14:13:19.428Z,35.47
2023-04-27T14:14:41.649Z,35.21
2023-04-27T14:16:15.097Z,35.26
2023-04-27T14:17:44.301Z,34.86
2023-04-27T14:19:06.190Z,34.54
2023-04-27T14:20:42.514Z,35.14
2023-04-27T14:22:17.504Z,34.85
2023-04-27T14:23:48.921Z,34.87
2023-04-27T14:25:34.240Z,35.09
2023-04-27T14:27:04.966Z,35.65
2023-04-27T14:28:29.611Z,36.00
2023-04-27T14:29:58.549Z,36.71
2023-04-27T14:31:20.570Z,37.14
2023-04-27T14:32:44.965Z,37.36
2023-04-27T14:34:14.489Z,37.98
2023-04-27T14:35:37.060Z,39.32
2023-04-27T14:37:22.369Z,40.42
2023-04-27T14:38:46.305Z,41.61
2023-04-27T14:40:22.083Z,42.09
2023-04-27T14:41:53.710Z,42.73
2023-04-27T14:43:17.745Z,43.13
2023-04-27T14:45:03.014Z,44.07
2023-04-27T14:46:28.336Z,44.87
2023-04-27T14:47:50.148Z,45.48
2023-04-27T14:49:30.825Z,45.85
2023-04-27T14:51:06.215Z,46.46
2023-04-27T14:52:30.438Z,47.13
2023-04-27T14:54:03.743Z,47.55
2023-04-27T14:55:37.142Z,47.79
2023-04-27T14:57:00.523Z,48.17
2023-04-27T14:58:27.114Z,48.40
2023-04-27T15:00:03.039Z,48.73
2023-04-27T15:01:27.675Z,48.94
2023-04-27T15:03:00.903Z,48.87
2023-04-27T15:04:35.504Z,48.96
2023-04-27T15:05:57.105Z,48.97
2023-04-27T15:07:21.310Z,49.12
2023-04-27T15:08:47.736Z,49.12
2023-04-27T15:10:09.320Z,49.40
2023-04-27T15:11:50.504Z,49.45
2023-04-27T15:13:21.900Z,49.71
2023-04-27T15:14:55.130Z,49.96
2023-04-27T15:16:22.429Z,50.07
2023-04-27T15:18:07.586Z,50.05
2023-04-27T15:19:29.992Z,50.26
2023-04-27T15:20:56.183Z,50.45
2023-04-27T15:22:18.232Z,50.28
2023-04-27T15:23:51.857Z,50.36
2023-04-27T15:25:20.956Z,50.43
2023-04-27T15:26:45.596Z,50.57
2023-04-27T15:28:21.071Z,50.69
2023-04-27T15:29:43.028Z,50.86
2023-04-27T15:31:12.450Z,51.19
2023-04-27T15:32:37.220Z,50.97
2023-04-27T15:34:10.535Z,50.82
2023-04-27T15:35:34.750Z,50.78
2023-04-27T15:37:19.547Z,50.60
2023-04-27T15:38:53.207Z,50.76
2023-04-27T15:40:26.981Z,50.92
2023-04-27T15:41:58.263Z,51.32
2023-04-27T15:43:22.293Z,51.27
2023-04-27T15:44:56.232Z,52.17
2023-04-27T15:46:20.137Z,51.48
2023-04-27T15:47:41.980Z,51.62
2023-04-27T15:49:03.939Z,51.78
2023-04-27T15:50:26.049Z,51.92
2023-04-27T15:51:55.362Z,51.93
2023-04-27T15:53:17.446Z,52.11
2023-04-27T15:54:41.889Z,52.42
2023-04-27T15:56:05.777Z,52.49
2023-04-27T15:57:39.464Z,52.41
2023-04-27T15:59:20.148Z,52.51
2023-04-27T16:00:41.964Z,52.96
2023-04-27T16:02:11.512Z,53.48
2023-04-27T16:03:37.600Z,53.45
2023-04-27T16:05:01.487Z,53.04
2023-04-27T16:06:26.043Z,53.63
2023-04-27T16:07:59.138Z,53.26
2023-04-27T16:09:32.734Z,52.66
2023-04-27T16:10:54.329Z,52.86
2023-04-27T16:12:16.463Z,53.07
2023-04-27T16:13:40.813Z,52.40
2023-04-27T16:15:02.553Z,52.40
2023-04-27T16:16:36.419Z,52.84
2023-04-27T16:18:00.768Z,52.61
2023-04-27T16:19:25.897Z,52.66
2023-04-27T16:20:47.612Z,52.60
2023-04-27T16:22:09.368Z,53.33
2023-04-27T16:23:31.551Z,52.55
2023-04-27T16:25:00.049Z,52.59
2023-04-27T16:26:26.610Z,52.58
2023-04-27T16:27:52.526Z,52.52
2023-04-27T16:29:16.987Z,52.39
2023-04-27T16:31:02.052Z,51.77
2023-04-27T16:32:24.778Z,51.74
2023-04-27T16:33:49.265Z,52.21
2023-04-27T16:35:10.975Z,52.32
2023-04-27T16:36:37.862Z,52.88
2023-04-27T16:37:59.667Z,52.87
2023-04-27T16:39:21.407Z,52.42
2023-04-27T16:40:45.956Z,52.41
2023-04-27T16:42:10.178Z,52.79
2023-04-27T16:43:55.256Z,52.44
2023-04-27T16:45:19.165Z,52.41
2023-04-27T16:46:51.261Z,52.26
2023-04-27T16:48:13.054Z,51.99
2023-04-27T16:49:37.754Z,52.55
2023-04-27T16:51:00.058Z,51.97
2023-04-27T16:52:30.371Z,51.69
2023-04-27T16:54:03.689Z,51.56
2023-04-27T16:55:37.448Z,51.22
2023-04-27T16:57:22.169Z,51.44
2023-04-27T16:59:08.547Z,51.74
2023-04-27T17:00:30.986Z,51.85
2023-04-27T17:01:52.391Z,51.93
2023-04-27T17:03:16.663Z,51.83
2023-04-27T17:04:42.068Z,51.62
2023-04-27T17:06:05.686Z,51.51
2023-04-27T17:07:40.231Z,51.76
2023-04-27T17:09:11.307Z,51.84
2023-04-27T17:10:36.491Z,52.01
2023-04-27T17:12:00.492Z,52.34
2023-04-27T17:13:32.244Z,52.64
2023-04-27T17:15:07.482Z,52.74
2023-04-27T17:16:29.799Z,52.89
2023-04-27T17:18:10.506Z,53.16
2023-04-27T17:19:35.136Z,53.30
2023-04-27T17:20:59.089Z,53.40
2023-04-27T17:22:21.266Z,53.29
2023-04-27T17:23:54.990Z,53.25
2023-04-27T17:25:21.331Z,53.34
2023-04-27T17:26:45.963Z,53.64
2023-04-27T17:28:14.947Z,53.82
2023-04-27T17:29:39.484Z,53.79
2023-04-27T17:31:01.756Z,53.77
2023-04-27T17:32:23.572Z,53.78
2023-04-27T17:33:45.139Z,53.73
2023-04-27T17:35:10.434Z,53.85
2023-04-27T17:36:42.001Z,54.08
2023-04-27T17:38:16.502Z,54.04
2023-04-27T17:40:00.371Z,54.06
2023-04-27T17:41:35.502Z,54.53
2023-04-27T17:43:00.903Z,54.58
2023-04-27T17:44:36.517Z,54.66
2023-04-27T17:46:09.751Z,54.79
2023-04-27T17:47:57.231Z,55.14
2023-04-27T17:49:18.947Z,55.43
2023-04-27T17:50:54.729Z,55.64
2023-04-27T17:52:37.668Z,55.81
2023-04-27T17:54:18.029Z,56.17
2023-04-27T17:55:42.813Z,55.99
2023-04-27T17:57:13.846Z,56.37
2023-04-27T17:58:45.935Z,56.43
2023-04-27T18:00:15.002Z,56.82
2023-04-27T18:01:51.550Z,57.42
2023-04-27T18:03:13.456Z,57.10
2023-04-27T18:04:36.580Z,57.15
2023-04-27T18:05:58.061Z,57.38
2023-04-27T18:07:20.490Z,57.44
2023-04-27T18:08:42.098Z,57.71
2023-04-27T18:10:04.070Z,57.93
2023-04-27T18:11:25.897Z,57.69
2023-04-27T18:12:47.616Z,57.86
2023-04-27T18:14:23.401Z,57.71
2023-04-27T18:16:15.702Z,57.93
2023-04-27T18:17:40.424Z,58.21
2023-04-27T18:19:02.197Z,58.46
2023-04-27T18:20:25.658Z,58.84
2023-04-27T18:21:47.693Z,58.78
2023-04-27T18:23:09.964Z,58.63
2023-04-27T18:24:32.076Z,58.58
2023-04-27T18:26:01.306Z,58.62
2023-04-27T18:27:32.787Z,59.06
2023-04-27T18:29:05.769Z,58.97
2023-04-27T18:30:30.102Z,58.95
2023-04-27T18:31:53.910Z,59.38
2023-04-27T18:33:20.080Z,60.09
2023-04-27T18:34:42.228Z,59.90
2023-04-27T18:36:03.772Z,60.23
2023-04-27T18:37:37.869Z,60.26
2023-04-27T18:38:59.819Z,59.77
2023-04-27T18:40:21.804Z,60.78
2023-04-27T18:41:57.720Z,61.38
2023-04-27T18:43:21.844Z,61.41
2023-04-27T18:44:43.759Z,61.89
2023-04-27T18:46:05.510Z,62.06
2023-04-27T18:47:27.642Z,61.77
2023-04-27T18:48:51.514Z,61.99
2023-04-27T18:50:15.723Z,62.33
2023-04-27T18:51:40.793Z,62.39
2023-04-27T18:53:02.744Z,63.12
2023-04-27T18:54:27.247Z,62.56
2023-04-27T18:55:51.692Z,59.62
2023-04-27T18:57:13.350Z,55.22
2023-04-27T18:58:35.708Z,53.52
2023-04-27T18:59:57.346Z,53.26
2023-04-27T19:01:19.156Z,54.15
2023-04-27T19:02:41.498Z,54.62
2023-04-27T19:04:10.888Z,55.44
2023-04-27T19:05:40.798Z,56.57
2023-04-27T19:07:08.047Z,57.03
2023-04-27T19:08:41.861Z,57.56
2023-04-27T19:10:05.712Z,58.97
2023-04-27T19:11:28.869Z,59.28
2023-04-27T19:12:50.376Z,59.75
2023-04-27T19:14:12.195Z,60.21
2023-04-27T19:15:38.973Z,60.82
2023-04-27T19:17:21.093Z,61.24
2023-04-27T19:18:50.463Z,61.44
2023-04-27T19:20:22.419Z,61.78